Time;durP1;ratioP1;P1;durP2;ratioP2;P2;SDS_P1;SDS_P2;PMS_P1;PMS_P2;Temp;Humidity;BMP_temperature;BMP_pressure;BME280_temperature;BME280_humidity;BME280_pressure;Samples;Min_cycle;Max_cycle;Signal;HPM_P1;HPM_P2
2022/11/28 00:02:13;;;;;;;14.52;8.13;;;5.40;99.90;;;;;;5008642;28;20084;-75
2022/11/28 00:04:39;;;;;;;15.55;9.02;;;5.40;99.90;;;;;;5011612;28;20495;-76
2022/11/28 00:07:05;;;;;;;16.75;10.35;;;5.40;99.90;;;;;;5041779;28;20170;-75
2022/11/28 00:09:30;;;;;;;16.38;10.63;;;5.40;99.90;;;;;;4980667;23;20094;-78
2022/11/28 00:11:56;;;;;;;17.42;10.30;;;5.40;99.90;;;;;;4953475;28;21477;-78
2022/11/28 00:14:22;;;;;;;18.48;10.25;;;5.30;99.90;;;;;;4952358;28;20023;-78
2022/11/28 00:16:48;;;;;;;17.00;10.90;;;5.30;99.90;;;;;;4953940;28;20094;-78
2022/11/28 00:19:13;;;;;;;15.68;9.88;;;5.20;99.90;;;;;;4952168;28;20090;-78
2022/11/28 00:21:40;;;;;;;16.67;9.65;;;5.20;99.90;;;;;;4949657;28;20477;-78
2022/11/28 00:24:06;;;;;;;18.27;10.18;;;5.20;99.90;;;;;;4952517;28;20038;-78
2022/11/28 00:26:35;;;;;;;17.45;10.50;;;5.10;99.90;;;;;;4951621;28;20503;-79
2022/11/28 00:29:02;;;;;;;19.55;10.77;;;5.10;99.90;;;;;;4948356;28;20078;-78
2022/11/28 00:31:31;;;;;;;16.48;9.75;;;5.10;99.90;;;;;;4951385;28;20019;-78
2022/11/28 00:33:57;;;;;;;15.00;9.32;;;5.10;99.90;;;;;;4948755;28;20039;-78
2022/11/28 00:36:23;;;;;;;14.63;9.20;;;5.10;99.90;;;;;;4952242;28;20049;-78
2022/11/28 00:38:50;;;;;;;14.40;9.38;;;5.10;99.90;;;;;;4951200;28;20053;-78
2022/11/28 00:41:20;;;;;;;17.77;9.75;;;5.10;99.90;;;;;;4948540;28;20107;-78
2022/11/28 00:43:48;;;;;;;18.60;9.88;;;5.00;99.90;;;;;;4949270;28;20045;-78
2022/11/28 00:46:15;;;;;;;15.85;10.23;;;5.10;99.90;;;;;;4950461;28;20027;-78
2022/11/28 00:48:41;;;;;;;18.00;9.70;;;5.10;99.90;;;;;;4947010;29;20148;-78
2022/11/28 00:51:19;;;;;;;14.75;9.43;;;5.10;99.90;;;;;;4951311;28;20506;-78
2022/11/28 00:53:46;;;;;;;14.90;9.07;;;5.10;99.90;;;;;;4952493;28;20038;-78
2022/11/28 00:56:15;;;;;;;15.98;8.52;;;5.10;99.90;;;;;;4951326;28;20082;-78
2022/11/28 00:58:41;;;;;;;16.77;9.60;;;5.10;99.90;;;;;;4953627;28;20027;-78
2022/11/28 01:01:10;;;;;;;18.00;9.02;;;5.00;99.90;;;;;;4952079;28;20102;-78
2022/11/28 01:03:37;;;;;;;16.38;9.18;;;5.00;99.90;;;;;;4952915;28;20098;-78
2022/11/28 01:06:03;;;;;;;16.67;8.88;;;5.00;99.90;;;;;;4952887;28;20039;-78
2022/11/28 01:08:28;;;;;;;13.30;8.30;;;5.00;99.90;;;;;;4952520;28;20090;-78
2022/11/28 01:10:54;;;;;;;12.93;8.30;;;5.00;99.90;;;;;;4948794;28;20685;-78
2022/11/28 01:13:20;;;;;;;18.70;10.65;;;5.00;99.90;;;;;;4949735;28;20472;-78
2022/11/28 01:15:45;;;;;;;13.18;9.30;;;5.00;99.90;;;;;;4950265;28;20500;-78
2022/11/28 01:18:11;;;;;;;14.13;9.25;;;5.00;99.90;;;;;;4950387;28;20106;-78
2022/11/28 01:20:36;;;;;;;16.25;9.27;;;5.00;99.90;;;;;;4953544;28;20026;-78
2022/11/28 01:23:03;;;;;;;15.82;9.82;;;4.90;99.90;;;;;;4968868;28;20066;-78
2022/11/28 01:25:29;;;;;;;15.27;9.02;;;5.00;99.90;;;;;;4953705;28;20049;-78
2022/11/28 01:27:54;;;;;;;15.32;9.30;;;4.90;99.90;;;;;;4947473;28;20102;-78
2022/11/28 01:30:20;;;;;;;12.57;8.05;;;5.00;99.90;;;;;;4953761;28;20114;-78
2022/11/28 01:32:46;;;;;;;18.65;9.80;;;5.00;99.90;;;;;;4949794;28;20039;-78
2022/11/28 01:35:11;;;;;;;15.82;9.40;;;5.00;99.90;;;;;;4947810;28;20062;-78
2022/11/28 01:37:37;;;;;;;15.80;9.85;;;5.00;99.90;;;;;;4954173;28;20035;-78
2022/11/28 01:40:03;;;;;;;13.23;8.93;;;5.00;99.90;;;;;;4948961;28;20023;-78
2022/11/28 01:42:29;;;;;;;13.40;8.48;;;5.00;99.90;;;;;;4950328;28;20046;-78
2022/11/28 01:44:54;;;;;;;14.25;8.00;;;5.00;99.90;;;;;;4948194;28;20027;-77
2022/11/28 01:47:26;;;;;;;13.32;7.97;;;5.00;99.90;;;;;;4946454;28;20372;-78
2022/11/28 01:49:53;;;;;;;11.40;8.32;;;5.00;99.90;;;;;;4952502;28;20031;-79
2022/11/28 01:52:20;;;;;;;13.95;7.80;;;5.00;99.90;;;;;;4950247;28;20516;-78
2022/11/28 01:54:51;;;;;;;14.70;8.00;;;5.00;99.90;;;;;;4947542;28;20063;-78
2022/11/28 01:57:23;;;;;;;13.88;7.85;;;5.00;99.90;;;;;;4950711;28;20019;-77
2022/11/28 02:00:00;;;;;;;11.50;7.72;;;5.00;99.90;;;;;;4951612;28;20420;-77
2022/11/28 02:02:36;;;;;;;12.80;7.60;;;5.00;99.90;;;;;;4968747;28;20028;-78
2022/11/28 02:05:03;;;;;;;11.82;7.07;;;5.00;99.90;;;;;;4966307;28;20027;-78
2022/11/28 02:07:28;;;;;;;11.68;7.53;;;5.00;99.90;;;;;;4967920;28;19999;-78
2022/11/28 02:09:54;;;;;;;11.85;7.30;;;4.90;99.90;;;;;;4964684;28;20172;-77
2022/11/28 02:12:29;;;;;;;12.23;6.68;;;5.00;99.90;;;;;;4958963;28;20027;-77
2022/11/28 02:15:04;;;;;;;11.23;7.28;;;4.90;99.90;;;;;;4956606;28;20035;-78
2022/11/28 02:18:18;;;;;;;9.52;5.30;;;4.90;99.90;;;;;;4950030;28;20046;-78
2022/11/28 02:20:50;;;;;;;11.30;6.63;;;5.00;99.90;;;;;;4944350;28;20059;-78
2022/11/28 02:23:24;;;;;;;11.38;6.78;;;4.90;99.90;;;;;;4948202;28;20050;-78
2022/11/28 02:26:27;;;;;;;15.60;7.07;;;5.00;99.90;;;;;;4948855;28;20591;-78
2022/11/28 02:29:20;;;;;;;10.70;6.63;;;5.00;99.90;;;;;;4951424;28;20034;-78
2022/11/28 02:31:57;;;;;;;10.45;6.65;;;5.00;99.90;;;;;;4950507;28;20031;-78
2022/11/28 02:34:32;;;;;;;9.90;6.63;;;5.00;99.90;;;;;;4952121;28;20035;-77
2022/11/28 02:37:07;;;;;;;10.70;6.43;;;5.00;99.90;;;;;;4949783;28;20151;-77
2022/11/28 02:39:58;;;;;;;11.18;6.50;;;5.00;99.90;;;;;;4948941;28;20110;-78
2022/11/28 02:42:49;;;;;;;11.75;7.70;;;5.00;99.90;;;;;;4939624;28;20452;-78
2022/11/28 02:45:54;;;;;;;9.55;6.28;;;5.00;99.90;;;;;;4947866;28;20424;-77
2022/11/28 02:48:38;;;;;;;12.77;6.93;;;5.10;99.90;;;;;;4945458;28;20362;-78
2022/11/28 02:51:19;;;;;;;14.85;7.55;;;5.00;99.90;;;;;;4949568;28;20110;-78
2022/11/28 02:53:47;;;;;;;15.27;8.10;;;5.00;99.90;;;;;;4946120;28;20035;-78
2022/11/28 02:56:12;;;;;;;12.05;7.07;;;5.00;99.90;;;;;;4950075;28;21368;-78
2022/11/28 02:58:38;;;;;;;11.77;7.43;;;5.10;99.90;;;;;;4945827;28;20027;-78
2022/11/28 03:01:11;;;;;;;14.07;7.88;;;5.00;99.90;;;;;;4948968;28;20042;-77
2022/11/28 03:03:59;;;;;;;12.25;7.28;;;5.10;99.90;;;;;;4945553;28;20339;-78
2022/11/28 03:06:35;;;;;;;11.13;6.00;;;5.10;99.90;;;;;;4948511;28;20118;-78
2022/11/28 03:09:15;;;;;;;11.60;6.78;;;5.10;99.90;;;;;;4947354;28;20039;-78
2022/11/28 03:11:53;;;;;;;11.73;7.32;;;5.10;99.90;;;;;;4947877;28;20046;-78
2022/11/28 03:14:44;;;;;;;11.48;7.88;;;5.10;99.90;;;;;;4950311;28;20448;-78
2022/11/28 03:17:34;;;;;;;16.00;8.73;;;5.10;99.90;;;;;;4947152;28;20039;-78
2022/11/28 03:20:39;;;;;;;11.32;7.57;;;5.10;99.90;;;;;;4945928;28;20440;-78
2022/11/28 03:23:19;;;;;;;13.68;8.68;;;5.10;99.90;;;;;;4950199;28;20035;-78
2022/11/28 03:26:35;;;;;;;16.40;9.05;;;5.10;99.90;;;;;;4947765;28;20066;-78
2022/11/28 03:29:22;;;;;;;12.75;8.15;;;5.00;99.90;;;;;;4924259;28;20055;-78
2022/11/28 03:31:58;;;;;;;15.43;8.90;;;5.00;99.90;;;;;;4967293;28;20027;-78
2022/11/28 03:34:31;;;;;;;15.30;8.27;;;5.00;99.90;;;;;;4952636;28;20022;-78
2022/11/28 03:37:01;;;;;;;14.02;8.00;;;5.00;99.90;;;;;;4946569;28;20030;-78
2022/11/28 03:39:41;;;;;;;12.77;8.25;;;5.00;99.90;;;;;;4949375;28;20033;-78
2022/11/28 03:42:13;;;;;;;14.40;8.68;;;5.00;99.90;;;;;;4948079;28;20054;-78
2022/11/28 03:44:52;;;;;;;15.60;8.20;;;5.00;99.90;;;;;;4944329;28;20031;-78
2022/11/28 03:47:17;;;;;;;12.90;8.82;;;5.00;99.90;;;;;;4946467;28;20035;-78
2022/11/28 03:49:52;;;;;;;13.32;8.70;;;4.90;99.90;;;;;;4944150;28;20054;-78
2022/11/28 03:52:27;;;;;;;18.42;9.05;;;4.90;99.90;;;;;;4948465;28;20023;-78
2022/11/28 03:54:59;;;;;;;14.43;8.45;;;4.80;99.90;;;;;;4946422;28;20126;-78
2022/11/28 03:57:34;;;;;;;16.35;9.02;;;4.80;99.90;;;;;;4949142;28;20146;-78
2022/11/28 04:00:06;;;;;;;13.30;8.50;;;4.80;99.90;;;;;;4946870;28;20027;-78
2022/11/28 04:02:59;;;;;;;18.08;10.57;;;4.80;99.90;;;;;;4947184;28;20488;-78
2022/11/28 04:05:45;;;;;;;15.32;9.35;;;4.80;99.90;;;;;;4961922;28;20170;-78
2022/11/28 04:08:29;;;;;;;14.07;8.88;;;4.80;99.90;;;;;;4941554;28;20031;-78
2022/11/28 04:11:07;;;;;;;16.73;9.20;;;4.70;99.90;;;;;;4962886;28;20024;-78
2022/11/28 04:14:07;;;;;;;13.95;8.65;;;4.70;99.90;;;;;;4946765;28;20046;-78
2022/11/28 04:16:51;;;;;;;13.10;7.85;;;4.70;99.90;;;;;;4949940;28;20500;-78
2022/11/28 04:19:20;;;;;;;11.93;7.55;;;4.70;99.90;;;;;;4946010;28;20031;-77
2022/11/28 04:21:58;;;;;;;12.35;7.78;;;4.70;99.90;;;;;;4949223;28;20027;-78
2022/11/28 04:24:50;;;;;;;14.82;7.72;;;4.70;99.90;;;;;;4948506;28;20049;-78
2022/11/28 04:27:22;;;;;;;10.57;7.22;;;4.70;99.90;;;;;;4950977;28;20031;-78
2022/11/28 04:29:52;;;;;;;11.57;7.43;;;4.70;99.90;;;;;;4945454;28;20050;-78
2022/11/28 04:32:20;;;;;;;14.15;7.57;;;4.70;99.90;;;;;;4950499;28;20039;-78
2022/11/28 04:34:54;;;;;;;13.57;7.63;;;4.70;99.90;;;;;;4951230;28;20027;-77
2022/11/28 04:37:22;;;;;;;11.65;7.68;;;4.70;99.90;;;;;;4949124;28;20027;-77
2022/11/28 04:39:49;;;;;;;11.88;7.32;;;4.70;99.90;;;;;;4947385;28;20086;-77
2022/11/28 04:42:19;;;;;;;11.90;6.90;;;4.70;99.90;;;;;;4946055;28;20058;-77
2022/11/28 04:44:56;;;;;;;9.70;6.65;;;4.70;99.90;;;;;;4946303;28;20424;-77
2022/11/28 04:47:23;;;;;;;10.55;6.55;;;4.70;99.90;;;;;;4948411;28;20035;-77
2022/11/28 04:49:49;;;;;;;11.68;6.82;;;4.80;99.90;;;;;;4960104;28;20035;-77
2022/11/28 04:52:28;;;;;;;9.70;6.22;;;4.70;99.90;;;;;;4950764;28;20053;-77
2022/11/28 04:55:26;;;;;;;11.27;5.97;;;4.70;99.90;;;;;;4950121;28;20110;-77
2022/11/28 04:57:58;;;;;;;9.80;6.40;;;4.70;99.90;;;;;;4962872;28;20122;-77
2022/11/28 05:00:25;;;;;;;10.32;6.13;;;4.80;99.90;;;;;;4952661;28;20109;-77
2022/11/28 05:02:53;;;;;;;10.30;6.35;;;4.80;99.90;;;;;;4965253;28;20031;-77
2022/11/28 05:05:22;;;;;;;8.85;6.03;;;4.70;99.90;;;;;;4950106;28;20028;-77
2022/11/28 05:07:48;;;;;;;13.18;6.53;;;4.80;99.90;;;;;;4951038;28;20066;-77
2022/11/28 05:10:15;;;;;;;11.38;6.57;;;4.80;99.90;;;;;;4950960;28;20067;-77
2022/11/28 05:12:41;;;;;;;9.75;6.65;;;4.80;99.90;;;;;;4946378;28;20555;-76
2022/11/28 05:15:08;;;;;;;11.70;7.43;;;4.80;99.90;;;;;;4950307;28;20121;-76
2022/11/28 05:17:34;;;;;;;11.15;6.88;;;4.80;99.90;;;;;;4953394;28;20487;-76
2022/11/28 05:20:00;;;;;;;11.82;6.63;;;4.80;99.90;;;;;;4947630;28;20031;-76
2022/11/28 05:22:26;;;;;;;9.90;6.45;;;4.80;99.90;;;;;;4952265;28;20258;-76
2022/11/28 05:24:51;;;;;;;12.88;6.95;;;4.80;99.90;;;;;;4947827;28;20024;-76
2022/11/28 05:27:17;;;;;;;10.68;6.00;;;4.80;99.90;;;;;;4951094;28;20065;-76
2022/11/28 05:29:45;;;;;;;15.10;7.28;;;4.80;99.90;;;;;;4945997;28;20037;-76
2022/11/28 05:32:11;;;;;;;12.30;6.88;;;4.90;99.90;;;;;;4955234;28;20022;-76
2022/11/28 05:34:37;;;;;;;14.75;7.45;;;4.90;99.90;;;;;;4950823;28;20038;-78
2022/11/28 05:37:03;;;;;;;13.50;7.25;;;4.90;99.90;;;;;;4951556;28;20511;-78
2022/11/28 05:39:29;;;;;;;13.90;6.68;;;4.90;99.90;;;;;;4950721;28;20086;-76
2022/11/28 05:41:55;;;;;;;10.23;6.25;;;5.00;99.90;;;;;;4949438;28;20039;-76
2022/11/28 05:44:21;;;;;;;12.77;6.93;;;4.90;99.90;;;;;;4949965;28;20030;-76
2022/11/28 05:46:47;;;;;;;14.82;6.75;;;4.90;99.90;;;;;;4950305;28;20388;-77
2022/11/28 05:49:12;;;;;;;10.43;6.18;;;5.00;99.90;;;;;;4947457;28;20243;-76
2022/11/28 05:51:38;;;;;;;10.13;5.32;;;5.00;99.90;;;;;;4952534;28;20031;-78
2022/11/28 05:54:04;;;;;;;11.32;5.40;;;5.10;99.90;;;;;;4947752;28;20839;-79
2022/11/28 05:56:30;;;;;;;9.52;4.97;;;5.10;99.90;;;;;;4951484;28;20474;-79
2022/11/28 05:58:56;;;;;;;9.93;5.38;;;5.10;99.90;;;;;;4946308;28;20039;-78
2022/11/28 06:01:24;;;;;;;8.18;4.57;;;5.20;99.90;;;;;;4947433;28;20432;-78
2022/11/28 06:03:56;;;;;;;9.30;4.90;;;5.20;99.90;;;;;;4953151;28;20027;-78
2022/11/28 06:06:23;;;;;;;9.27;5.07;;;5.20;99.90;;;;;;4947011;28;20130;-79
2022/11/28 06:08:51;;;;;;;7.85;4.25;;;5.30;99.90;;;;;;4945884;28;20447;-78
2022/11/28 06:11:19;;;;;;;8.43;4.13;;;5.30;99.90;;;;;;4949532;28;20031;-77
2022/11/28 06:13:46;;;;;;;8.80;3.38;;;5.30;99.90;;;;;;4950148;28;20191;-79
2022/11/28 06:16:17;;;;;;;8.80;4.25;;;5.30;99.90;;;;;;4951702;28;20020;-78
2022/11/28 06:18:44;;;;;;;6.93;4.15;;;5.40;99.90;;;;;;4939994;28;20432;-78
2022/11/28 06:21:11;;;;;;;8.35;4.20;;;5.40;99.90;;;;;;4942192;28;20090;-78
2022/11/28 06:23:37;;;;;;;7.05;4.15;;;5.40;99.90;;;;;;4950247;28;20109;-78
2022/11/28 06:26:09;;;;;;;8.95;4.78;;;5.40;99.90;;;;;;4955374;28;20023;-78
2022/11/28 06:28:35;;;;;;;12.50;5.07;;;5.40;99.90;;;;;;4948911;28;20054;-79
2022/11/28 06:31:01;;;;;;;8.43;3.83;;;5.40;99.90;;;;;;4948248;28;20059;-78
2022/11/28 06:33:26;;;;;;;6.88;4.22;;;5.40;99.90;;;;;;4952409;28;20074;-78
2022/11/28 06:35:59;;;;;;;8.13;4.40;;;5.50;99.90;;;;;;4951250;28;20039;-78
2022/11/28 06:38:24;;;;;;;7.30;4.60;;;5.50;99.90;;;;;;4946322;28;20023;-78
2022/11/28 06:40:50;;;;;;;9.05;4.05;;;5.50;99.90;;;;;;4957009;28;20054;-79
2022/11/28 06:43:16;;;;;;;7.55;4.70;;;5.50;99.90;;;;;;4947899;28;20045;-78
2022/11/28 06:45:41;;;;;;;8.88;4.15;;;5.50;99.90;;;;;;4962584;28;20031;-79
2022/11/28 06:48:07;;;;;;;7.82;4.22;;;5.50;99.90;;;;;;4949174;28;20411;-78
2022/11/28 06:50:32;;;;;;;9.07;7.13;;;5.50;99.90;;;;;;4951872;28;20074;-78
2022/11/28 06:52:58;;;;;;;17.30;13.43;;;5.50;99.90;;;;;;4949306;28;20105;-80
2022/11/28 06:55:23;;;;;;;21.90;11.63;;;5.50;99.90;;;;;;4952949;28;20022;-78
2022/11/28 06:57:49;;;;;;;15.55;9.05;;;5.50;99.90;;;;;;4943395;28;20046;-78
2022/11/28 07:00:16;;;;;;;17.83;10.48;;;5.50;99.90;;;;;;4949301;28;20600;-77
2022/11/28 07:02:41;;;;;;;19.48;9.60;;;5.40;99.90;;;;;;4951644;28;20031;-78
2022/11/28 07:05:07;;;;;;;15.30;9.20;;;5.40;99.90;;;;;;4950749;28;20492;-77
2022/11/28 07:07:33;;;;;;;14.13;8.90;;;5.30;99.90;;;;;;4950346;28;20031;-77
2022/11/28 07:09:58;;;;;;;17.75;9.13;;;5.30;99.90;;;;;;4948845;28;20120;-78
2022/11/28 07:12:24;;;;;;;17.30;9.88;;;5.30;99.90;;;;;;4949940;28;20027;-77
2022/11/28 07:14:50;;;;;;;17.25;8.82;;;5.30;99.90;;;;;;4947594;28;20031;-77
2022/11/28 07:17:16;;;;;;;11.85;8.73;;;5.20;99.90;;;;;;4950287;28;20023;-78
2022/11/28 07:19:41;;;;;;;14.55;8.15;;;5.20;99.90;;;;;;4948152;28;20046;-76
2022/11/28 07:22:10;;;;;;;13.05;7.30;;;5.20;99.90;;;;;;4939467;28;20027;-77
2022/11/28 07:24:36;;;;;;;11.55;6.53;;;5.20;99.90;;;;;;4947335;28;20031;-76
2022/11/28 07:27:01;;;;;;;14.57;7.00;;;5.10;99.90;;;;;;4950551;28;20046;-76
2022/11/28 07:29:34;;;;;;;11.60;7.18;;;5.10;99.90;;;;;;4948630;28;20035;-76
2022/11/28 07:32:00;;;;;;;11.80;7.28;;;5.10;99.90;;;;;;4948632;28;20122;-76
2022/11/28 07:34:26;;;;;;;15.02;7.38;;;5.10;99.90;;;;;;4946269;28;20114;-76
2022/11/28 07:36:52;;;;;;;15.07;7.90;;;5.10;99.90;;;;;;4950853;28;20126;-76
2022/11/28 07:39:17;;;;;;;11.15;6.57;;;5.10;99.90;;;;;;4948507;28;20575;-76
2022/11/28 07:41:43;;;;;;;10.30;6.45;;;5.10;99.90;;;;;;4949601;28;20030;-76
2022/11/28 07:44:10;;;;;;;10.80;6.72;;;5.10;99.90;;;;;;4962976;28;20031;-76
2022/11/28 07:46:37;;;;;;;10.85;6.05;;;5.10;99.90;;;;;;4947159;28;20046;-76
2022/11/28 07:49:03;;;;;;;10.60;6.30;;;5.10;99.90;;;;;;4941045;28;20401;-76
2022/11/28 07:51:31;;;;;;;12.00;6.03;;;5.10;99.90;;;;;;4948144;28;20036;-76
2022/11/28 07:53:57;;;;;;;13.15;7.13;;;5.20;99.90;;;;;;4949951;28;20094;-76
2022/11/28 07:56:26;;;;;;;10.90;6.15;;;5.20;99.90;;;;;;4945795;28;20027;-76
2022/11/28 07:58:53;;;;;;;17.35;7.38;;;5.20;99.90;;;;;;4948229;28;20027;-76
2022/11/28 08:01:21;;;;;;;16.02;7.63;;;5.30;99.90;;;;;;4950762;28;20106;-76
2022/11/28 08:03:47;;;;;;;12.98;6.95;;;5.30;99.90;;;;;;4949008;28;20031;-76
2022/11/28 08:06:15;;;;;;;12.02;6.50;;;5.30;99.90;;;;;;4947575;28;20682;-76
2022/11/28 08:08:42;;;;;;;13.65;6.25;;;5.40;99.90;;;;;;4949148;28;20106;-76
2022/11/28 08:11:09;;;;;;;10.50;5.80;;;5.40;99.90;;;;;;4951663;28;20030;-76
2022/11/28 08:13:36;;;;;;;12.25;5.95;;;5.50;99.90;;;;;;4948336;28;20039;-76
2022/11/28 08:16:07;;;;;;;12.85;6.07;;;5.50;99.90;;;;;;4947691;28;20042;-76
2022/11/28 08:18:34;;;;;;;10.13;5.20;;;5.60;99.90;;;;;;4948042;28;20455;-76
2022/11/28 08:21:11;;;;;;;10.73;6.10;;;5.70;99.90;;;;;;4949112;28;20098;-76
2022/11/28 08:23:37;;;;;;;10.98;5.97;;;5.70;99.90;;;;;;4953740;28;20027;-76
2022/11/28 08:26:08;;;;;;;11.25;5.95;;;5.70;99.90;;;;;;4953580;28;20031;-76
2022/11/28 08:28:35;;;;;;;13.95;6.15;;;5.80;99.90;;;;;;4951452;28;20027;-76
2022/11/28 08:31:12;;;;;;;10.93;6.47;;;5.80;99.90;;;;;;4954206;28;20031;-76
2022/11/28 08:33:38;;;;;;;13.88;6.13;;;5.80;99.90;;;;;;4948927;28;20037;-76
2022/11/28 08:36:05;;;;;;;9.93;5.80;;;5.80;99.90;;;;;;4949220;28;20106;-77
2022/11/28 08:38:31;;;;;;;14.32;6.35;;;5.90;99.90;;;;;;4948705;28;20093;-76
2022/11/28 08:41:01;;;;;;;11.80;6.82;;;5.90;99.90;;;;;;4953664;28;20032;-76
2022/11/28 08:43:27;;;;;;;11.75;6.85;;;5.90;99.90;;;;;;4948642;28;20085;-75
2022/11/28 08:45:52;;;;;;;13.07;6.25;;;5.90;99.90;;;;;;4949909;28;20035;-76
2022/11/28 08:48:18;;;;;;;12.27;6.15;;;5.90;99.90;;;;;;4949745;28;20431;-76
2022/11/28 08:50:47;;;;;;;12.35;6.72;;;6.00;99.90;;;;;;4943832;28;20070;-76
2022/11/28 08:53:13;;;;;;;12.57;6.90;;;6.00;99.90;;;;;;4945176;28;20035;-76
2022/11/28 08:55:43;;;;;;;16.85;6.47;;;6.00;99.90;;;;;;4949723;28;20030;-76
2022/11/28 08:58:13;;;;;;;12.95;6.53;;;6.10;99.90;;;;;;4947057;28;20122;-76
2022/11/28 09:00:38;;;;;;;12.60;6.35;;;6.10;99.90;;;;;;4949313;28;20507;-76
2022/11/28 09:03:04;;;;;;;12.70;5.90;;;6.20;99.90;;;;;;4952645;28;20053;-75
2022/11/28 09:05:30;;;;;;;9.63;5.68;;;6.20;99.90;;;;;;4951548;28;20023;-76
2022/11/28 09:07:56;;;;;;;14.23;5.80;;;6.20;99.90;;;;;;4951565;28;20094;-75
2022/11/28 09:10:23;;;;;;;11.20;7.05;;;6.30;99.90;;;;;;4949666;28;20027;-75
2022/11/28 09:12:50;;;;;;;12.38;6.40;;;6.30;99.90;;;;;;4948272;28;20175;-76
2022/11/28 09:15:16;;;;;;;15.68;7.43;;;6.30;99.90;;;;;;4949591;28;20027;-76
2022/11/28 09:17:42;;;;;;;13.63;6.85;;;6.40;99.90;;;;;;4950266;28;20023;-75
2022/11/28 09:20:08;;;;;;;15.40;7.00;;;6.40;99.90;;;;;;4950553;28;20038;-76
2022/11/28 09:22:34;;;;;;;15.30;7.75;;;6.50;99.90;;;;;;4952605;28;20141;-75
2022/11/28 09:25:00;;;;;;;16.00;6.90;;;6.50;99.90;;;;;;4946766;28;20425;-76
2022/11/28 09:27:26;;;;;;;17.50;7.07;;;6.50;99.90;;;;;;4950041;28;20035;-76
2022/11/28 09:29:52;;;;;;;11.82;7.30;;;6.60;99.90;;;;;;4964706;28;20023;-76
2022/11/28 09:32:17;;;;;;;15.25;7.80;;;6.60;99.90;;;;;;4951760;28;20033;-76
2022/11/28 09:34:43;;;;;;;12.70;7.47;;;6.60;99.90;;;;;;4973193;28;20031;-76
2022/11/28 09:37:09;;;;;;;12.85;6.40;;;6.60;99.90;;;;;;4952427;28;20042;-76
2022/11/28 09:39:35;;;;;;;13.68;6.38;;;6.70;99.90;;;;;;4950326;28;20110;-76
2022/11/28 09:42:19;;;;;;;12.85;7.07;;;6.70;99.90;;;;;;4965516;28;20122;-75
2022/11/28 09:44:50;;;;;;;13.32;6.88;;;6.80;99.90;;;;;;4949353;28;20046;-76
2022/11/28 09:47:23;;;;;;;12.90;6.00;;;6.70;99.90;;;;;;4948077;28;20178;-76
2022/11/28 09:50:15;;;;;;;12.95;6.68;;;6.80;99.90;;;;;;4949916;28;20499;-76
2022/11/28 09:52:50;;;;;;;12.10;6.88;;;6.80;99.90;;;;;;4948933;28;20035;-76
2022/11/28 09:55:40;;;;;;;11.90;6.47;;;6.80;99.90;;;;;;4950564;28;20102;-76
2022/11/28 09:58:26;;;;;;;11.95;6.40;;;6.90;99.90;;;;;;4939097;28;20544;-76
2022/11/28 10:00:57;;;;;;;13.27;6.85;;;6.90;99.90;;;;;;4945278;28;20506;-76
2022/11/28 10:03:50;;;;;;;14.65;7.45;;;6.90;99.90;;;;;;4952804;28;20026;-76
2022/11/28 10:06:24;;;;;;;13.02;7.95;;;7.00;99.90;;;;;;4930544;28;20040;-76
2022/11/28 10:09:32;;;;;;;14.68;7.82;;;7.00;99.90;;;;;;4939546;28;20045;-76
2022/11/28 10:12:25;;;;;;;12.13;7.13;;;7.10;99.90;;;;;;4943810;28;20105;-76
2022/11/28 10:15:19;;;;;;;12.88;6.80;;;7.20;99.90;;;;;;4944517;28;20491;-76
2022/11/28 10:17:56;;;;;;;12.47;7.97;;;7.20;99.90;;;;;;4949516;28;20066;-76
2022/11/28 10:20:32;;;;;;;14.85;8.35;;;7.30;99.90;;;;;;4948837;28;20388;-76
2022/11/28 10:23:03;;;;;;;13.93;7.47;;;7.30;99.90;;;;;;4964387;28;20023;-77
2022/11/28 10:25:45;;;;;;;15.45;7.85;;;7.40;99.90;;;;;;4948959;28;20058;-76
2022/11/28 10:28:25;;;;;;;14.45;7.40;;;7.40;99.90;;;;;;4943654;28;20035;-76
2022/11/28 10:31:03;;;;;;;15.23;8.05;;;7.50;99.90;;;;;;4962750;28;20029;-76
2022/11/28 10:33:38;;;;;;;16.23;7.53;;;7.50;99.90;;;;;;4952541;28;20030;-76
2022/11/28 10:36:05;;;;;;;16.33;8.65;;;7.60;99.90;;;;;;4962008;28;20031;-77
2022/11/28 10:38:33;;;;;;;11.68;7.30;;;7.60;99.90;;;;;;4965516;28;20015;-76
2022/11/28 10:41:19;;;;;;;18.48;7.68;;;7.60;99.90;;;;;;4965866;28;20051;-77
2022/11/28 10:43:55;;;;;;;13.00;6.40;;;7.70;99.90;;;;;;4963659;28;20395;-76
2022/11/28 10:46:24;;;;;;;13.60;6.78;;;7.70;99.90;;;;;;4956654;28;20026;-77
2022/11/28 10:48:52;;;;;;;10.73;6.13;;;7.80;99.90;;;;;;4948251;28;20031;-77
2022/11/28 10:51:37;;;;;;;17.38;6.82;;;7.80;99.90;;;;;;4948577;28;20034;-76
2022/11/28 10:54:05;;;;;;;15.68;6.65;;;7.90;99.90;;;;;;4944252;28;20496;-76
2022/11/28 10:56:55;;;;;;;14.63;6.10;;;8.00;99.90;;;;;;4949823;28;20031;-76
2022/11/28 10:59:26;;;;;;;10.82;6.28;;;8.00;99.90;;;;;;4950206;28;20137;-76
2022/11/28 11:01:52;;;;;;;16.33;6.47;;;8.00;99.90;;;;;;4950769;28;20055;-75
2022/11/28 11:04:22;;;;;;;11.48;6.03;;;8.10;99.90;;;;;;4946876;28;20046;-76
2022/11/28 11:07:14;;;;;;;12.85;6.03;;;8.10;99.90;;;;;;4948134;28;20480;-75
2022/11/28 11:09:42;;;;;;;14.57;6.85;;;8.20;99.90;;;;;;4943766;28;20109;-76
2022/11/28 11:12:17;;;;;;;23.17;8.63;;;8.20;99.90;;;;;;4950230;28;20046;-76
2022/11/28 11:14:43;;;;;;;26.52;9.07;;;8.20;99.90;;;;;;4946369;28;20046;-76
2022/11/28 11:17:32;;;;;;;20.98;9.43;;;8.20;99.90;;;;;;4967127;28;20055;-75
2022/11/28 11:19:58;;;;;;;22.40;9.70;;;8.30;99.90;;;;;;4947589;28;20033;-76
2022/11/28 11:22:27;;;;;;;27.52;11.43;;;8.30;99.90;;;;;;4948827;28;20115;-76
2022/11/28 11:25:13;;;;;;;23.45;11.20;;;8.30;99.90;;;;;;4949791;28;20073;-78
2022/11/28 11:27:57;;;;;;;28.42;10.88;;;8.30;99.90;;;;;;4942184;28;20054;-75
2022/11/28 11:30:40;;;;;;;26.83;10.82;;;8.40;99.90;;;;;;4949196;28;20054;-76
2022/11/28 11:33:14;;;;;;;27.80;10.63;;;8.40;99.90;;;;;;4961743;28;20031;-76
2022/11/28 11:35:46;;;;;;;24.48;10.80;;;8.40;99.90;;;;;;4946619;28;20523;-76
2022/11/28 11:38:21;;;;;;;24.92;10.20;;;8.50;99.90;;;;;;4948134;28;20039;-75
2022/11/28 11:40:49;;;;;;;24.25;10.45;;;8.50;99.90;;;;;;4952111;28;20034;-76
2022/11/28 11:43:34;;;;;;;25.35;11.52;;;8.50;99.90;;;;;;4951768;28;20400;-76
2022/11/28 11:46:06;;;;;;;23.83;11.32;;;8.60;99.90;;;;;;4950851;28;20039;-76
2022/11/28 11:48:47;;;;;;;30.08;11.98;;;8.50;99.90;;;;;;4945963;28;20034;-76
2022/11/28 11:51:27;;;;;;;31.15;11.68;;;8.50;99.90;;;;;;4945967;28;20031;-79
2022/11/28 11:54:19;;;;;;;26.55;10.93;;;8.50;99.90;;;;;;4944264;28;20427;-76
2022/11/28 11:56:47;;;;;;;27.92;10.93;;;8.50;99.90;;;;;;4946890;28;20033;-76
2022/11/28 11:59:27;;;;;;;35.40;12.20;;;8.50;99.90;;;;;;4956280;28;20031;-77
2022/11/28 12:02:01;;;;;;;30.13;12.52;;;8.50;99.90;;;;;;4954521;28;20027;-76
2022/11/28 12:05:01;;;;;;;26.00;12.50;;;8.40;99.90;;;;;;4952105;28;20031;-76
2022/11/28 12:07:37;;;;;;;29.42;12.70;;;8.50;99.90;;;;;;4954184;28;20399;-77
2022/11/28 12:10:05;;;;;;;22.15;11.32;;;8.50;99.90;;;;;;4953417;28;20046;-76
2022/11/28 12:12:37;;;;;;;28.45;11.35;;;8.50;99.90;;;;;;4966504;28;20039;-77
2022/11/28 12:15:14;;;;;;;25.25;11.05;;;8.50;99.90;;;;;;4951594;28;20058;-76
2022/11/28 12:17:45;;;;;;;20.65;10.35;;;8.50;99.90;;;;;;4950220;28;20503;-76
2022/11/28 12:20:36;;;;;;;20.52;10.77;;;8.50;99.90;;;;;;4944808;28;20034;-77
2022/11/28 12:23:11;;;;;;;21.90;10.38;;;8.50;99.90;;;;;;4954125;28;20041;-77
2022/11/28 12:25:41;;;;;;;21.27;10.30;;;8.50;99.90;;;;;;4962746;28;20579;-77
2022/11/28 12:28:32;;;;;;;27.67;11.02;;;8.50;99.90;;;;;;4953608;28;20038;-77
2022/11/28 12:31:15;;;;;;;21.98;11.10;;;8.50;99.90;;;;;;4964078;28;20496;-76
2022/11/28 12:34:04;;;;;;;21.52;11.80;;;8.50;99.90;;;;;;4966792;28;20028;-76
2022/11/28 12:36:47;;;;;;;22.40;10.38;;;8.50;99.90;;;;;;4944756;28;20496;-76
2022/11/28 12:39:35;;;;;;;19.15;10.13;;;8.60;99.90;;;;;;4945954;28;20039;-76
2022/11/28 12:42:08;;;;;;;18.85;9.77;;;8.60;99.90;;;;;;4964978;28;20027;-76
2022/11/28 12:44:36;;;;;;;22.90;11.57;;;8.70;99.90;;;;;;4948721;28;20031;-76
2022/11/28 12:47:29;;;;;;;23.83;12.10;;;8.70;99.90;;;;;;4951678;28;20288;-79
2022/11/28 12:50:14;;;;;;;22.92;10.65;;;8.70;99.90;;;;;;4951742;28;20038;-77
2022/11/28 12:53:00;;;;;;;23.65;11.52;;;8.80;99.90;;;;;;4952138;28;20511;-76
2022/11/28 12:56:04;;;;;;;21.70;11.27;;;8.80;99.90;;;;;;4950795;28;20072;-76
2022/11/28 12:58:47;;;;;;;26.73;11.60;;;8.80;99.90;;;;;;4941519;28;20098;-77
2022/11/28 13:01:38;;;;;;;23.85;11.85;;;8.80;99.90;;;;;;4949605;28;20023;-77
2022/11/28 13:04:24;;;;;;;23.38;10.73;;;8.80;99.90;;;;;;4953484;28;20035;-76
2022/11/28 13:07:47;;;;;;;23.10;12.05;;;8.80;99.90;;;;;;4969200;28;20027;-77
2022/11/28 13:10:22;;;;;;;19.30;10.88;;;8.80;99.90;;;;;;4890810;29;20040;-78
2022/11/28 13:13:26;;;;;;;17.17;10.35;;;8.80;99.90;;;;;;4892804;29;20078;-77
2022/11/28 13:16:05;;;;;;;21.63;10.35;;;8.80;99.90;;;;;;4903318;29;20043;-76